createdAt,value
2024-01-24T00:01:44.162Z,4.80
2024-01-24T00:03:46.288Z,4.70
2024-01-24T00:05:48.195Z,4.70
2024-01-24T00:07:51.077Z,4.70
2024-01-24T00:09:52.898Z,4.70
2024-01-24T00:11:54.811Z,4.70
2024-01-24T00:13:56.621Z,4.70
2024-01-24T00:15:58.467Z,4.70
2024-01-24T00:18:00.320Z,4.70
2024-01-24T00:20:02.400Z,4.80
2024-01-24T00:22:04.548Z,4.80
2024-01-24T00:24:06.407Z,4.80
2024-01-24T00:26:08.387Z,4.90
2024-01-24T00:28:10.284Z,4.90
2024-01-24T00:30:12.457Z,4.80
2024-01-24T00:32:14.332Z,4.90
2024-01-24T00:34:17.364Z,4.90
2024-01-24T00:36:19.150Z,4.90
2024-01-24T00:38:21.115Z,4.90
2024-01-24T00:40:23.233Z,4.90
2024-01-24T00:42:25.032Z,4.90
2024-01-24T00:44:26.904Z,4.90
2024-01-24T00:46:28.662Z,5.00
2024-01-24T00:48:30.544Z,5.00
2024-01-24T00:50:32.653Z,5.00
2024-01-24T00:52:34.417Z,4.90
2024-01-24T00:54:36.256Z,5.00
2024-01-24T00:56:38.050Z,5.00
2024-01-24T00:58:39.769Z,5.00
2024-01-24T01:00:41.630Z,5.00
2024-01-24T01:02:44.229Z,5.00
2024-01-24T01:04:46.013Z,5.10
2024-01-24T01:06:47.979Z,5.10
2024-01-24T01:08:49.865Z,5.10
2024-01-24T01:10:51.706Z,5.10
2024-01-24T01:12:54.929Z,5.20
2024-01-24T01:14:56.868Z,5.30
2024-01-24T01:16:58.603Z,5.30
2024-01-24T01:19:00.561Z,5.30
2024-01-24T01:21:02.428Z,5.30
2024-01-24T01:23:04.873Z,5.40
2024-01-24T01:25:07.006Z,5.50
2024-01-24T01:27:09.910Z,5.50
2024-01-24T01:29:11.691Z,5.50
2024-01-24T01:31:13.764Z,5.50
2024-01-24T01:33:15.687Z,5.50
2024-01-24T01:35:17.704Z,5.60
2024-01-24T01:37:19.477Z,5.60
2024-01-24T01:39:21.269Z,5.70
2024-01-24T01:41:23.104Z,5.70
2024-01-24T01:43:25.273Z,5.80
2024-01-24T01:45:27.035Z,5.80
2024-01-24T01:47:28.898Z,5.90
2024-01-24T01:49:30.953Z,5.90
2024-01-24T01:51:32.853Z,5.90
2024-01-24T01:53:39.811Z,6.00
2024-01-24T01:55:41.893Z,6.00
2024-01-24T01:57:45.468Z,6.00
2024-01-24T01:59:47.853Z,6.10
2024-01-24T02:01:53.200Z,6.10
2024-01-24T02:03:55.315Z,6.20
2024-01-24T02:05:57.083Z,6.20
2024-01-24T02:07:59.111Z,6.20
2024-01-24T02:10:01.039Z,6.30
2024-01-24T02:12:02.869Z,6.30
2024-01-24T02:14:04.605Z,6.40
2024-01-24T02:16:07.061Z,6.40
2024-01-24T02:18:08.911Z,6.40
2024-01-24T02:20:12.196Z,6.50
2024-01-24T02:22:14.025Z,6.50
2024-01-24T02:24:15.840Z,6.50
2024-01-24T02:26:17.759Z,6.50
2024-01-24T02:28:20.031Z,6.50
2024-01-24T02:30:21.812Z,6.50
2024-01-24T02:32:23.634Z,6.60
2024-01-24T02:34:25.516Z,6.50
2024-01-24T02:36:27.405Z,6.60
2024-01-24T02:38:29.199Z,6.60
2024-01-24T02:40:30.941Z,6.60
2024-01-24T02:42:32.823Z,6.70
2024-01-24T02:44:34.716Z,6.70
2024-01-24T02:46:36.557Z,6.80
2024-01-24T02:48:38.385Z,7.00
2024-01-24T02:50:40.233Z,7.20
2024-01-24T02:52:41.998Z,7.30
2024-01-24T02:54:44.241Z,7.60
2024-01-24T02:56:46.000Z,7.80
2024-01-24T02:58:48.441Z,8.00
2024-01-24T03:00:50.333Z,8.20
2024-01-24T03:02:52.231Z,8.30
2024-01-24T03:04:54.030Z,8.50
2024-01-24T03:06:58.706Z,8.60
2024-01-24T03:09:00.613Z,8.80
2024-01-24T03:11:02.751Z,8.90
2024-01-24T03:13:04.757Z,9.00
2024-01-24T03:15:06.905Z,9.10
2024-01-24T03:17:09.198Z,9.20
2024-01-24T03:19:11.534Z,9.20
2024-01-24T03:21:17.538Z,9.30
2024-01-24T03:23:19.375Z,9.40
2024-01-24T03:25:21.195Z,9.40
2024-01-24T03:27:23.112Z,9.40
2024-01-24T03:29:24.875Z,9.50
2024-01-24T03:31:26.598Z,9.50
2024-01-24T03:33:28.503Z,9.60
2024-01-24T03:35:30.236Z,9.60
2024-01-24T03:37:32.013Z,9.70
2024-01-24T03:39:33.767Z,9.80
2024-01-24T03:41:37.123Z,9.80
2024-01-24T03:43:42.124Z,10.00
2024-01-24T03:45:43.993Z,10.10
2024-01-24T03:47:48.421Z,10.20
2024-01-24T03:49:50.305Z,10.20
2024-01-24T03:51:52.294Z,10.30
2024-01-24T03:53:54.079Z,10.30
2024-01-24T03:55:55.836Z,10.40
2024-01-24T03:57:58.000Z,10.40
2024-01-24T04:00:00.005Z,10.50
2024-01-24T04:02:01.829Z,10.60
2024-01-24T04:04:03.750Z,10.70
2024-01-24T04:06:05.719Z,10.70
2024-01-24T04:08:07.563Z,10.80
2024-01-24T04:10:10.083Z,10.90
2024-01-24T04:12:12.204Z,10.90
2024-01-24T04:14:14.152Z,10.90
2024-01-24T04:16:15.892Z,10.90
2024-01-24T04:18:17.898Z,11.00
2024-01-24T04:20:19.755Z,11.00
2024-01-24T04:22:21.498Z,11.10
2024-01-24T04:24:23.271Z,11.10
2024-01-24T04:26:25.071Z,11.10
2024-01-24T04:28:26.820Z,11.10
2024-01-24T04:30:28.896Z,11.30
2024-01-24T04:32:30.708Z,11.30
2024-01-24T04:34:32.472Z,11.30
2024-01-24T04:36:34.512Z,11.30
2024-01-24T04:38:39.440Z,11.40
2024-01-24T04:40:41.250Z,11.40
2024-01-24T04:42:43.206Z,11.50
2024-01-24T04:44:45.282Z,11.50
2024-01-24T04:46:47.063Z,11.50
2024-01-24T04:48:49.621Z,11.60
2024-01-24T04:50:51.833Z,11.70
2024-01-24T04:52:53.762Z,11.70
2024-01-24T04:54:55.641Z,11.70
2024-01-24T04:56:57.389Z,11.70
2024-01-24T04:58:59.183Z,11.80
2024-01-24T05:01:01.740Z,11.80
2024-01-24T05:03:03.970Z,11.80
2024-01-24T05:05:09.062Z,11.90
2024-01-24T05:07:10.920Z,11.80
2024-01-24T05:09:12.993Z,11.80
2024-01-24T05:11:14.914Z,11.90
2024-01-24T05:13:16.853Z,11.90
2024-01-24T05:15:18.752Z,11.90
2024-01-24T05:17:20.563Z,11.90
2024-01-24T05:19:22.473Z,11.90
2024-01-24T05:21:24.920Z,11.90
2024-01-24T05:23:26.635Z,11.90
2024-01-24T05:25:28.347Z,12.00
2024-01-24T05:27:30.213Z,12.00
2024-01-24T05:29:31.941Z,12.00
2024-01-24T05:31:35.104Z,12.10
2024-01-24T05:33:37.141Z,12.10
2024-01-24T05:35:38.953Z,12.20
2024-01-24T05:37:41.061Z,12.20
2024-01-24T05:39:43.641Z,12.20
2024-01-24T05:41:45.656Z,12.30
2024-01-24T05:43:47.430Z,12.40
2024-01-24T05:45:52.271Z,12.50
2024-01-24T05:47:54.226Z,12.50
2024-01-24T05:49:56.093Z,12.40
2024-01-24T05:51:58.042Z,12.50
2024-01-24T05:53:59.943Z,12.50
2024-01-24T05:56:01.874Z,12.50
2024-01-24T05:58:03.875Z,12.40
2024-01-24T06:00:09.549Z,12.40
2024-01-24T06:02:11.396Z,12.50
2024-01-24T06:04:13.323Z,12.50
2024-01-24T06:06:15.319Z,12.50
2024-01-24T06:08:17.104Z,12.50
2024-01-24T06:10:18.933Z,12.60
2024-01-24T06:12:20.826Z,12.60
2024-01-24T06:14:22.729Z,12.70
2024-01-24T06:16:24.564Z,12.60
2024-01-24T06:18:26.398Z,12.60
2024-01-24T06:20:28.619Z,12.60
2024-01-24T06:22:30.376Z,12.50
2024-01-24T06:24:32.591Z,12.50
2024-01-24T06:26:34.396Z,12.50
2024-01-24T06:28:36.197Z,12.50
2024-01-24T06:30:38.088Z,12.50
2024-01-24T06:32:39.969Z,12.50
2024-01-24T06:34:41.785Z,12.50
2024-01-24T06:36:43.681Z,12.50
2024-01-24T06:38:46.233Z,12.60
2024-01-24T06:40:48.019Z,12.60
2024-01-24T06:42:51.576Z,12.50
2024-01-24T06:44:53.768Z,12.50
2024-01-24T06:46:55.465Z,12.50
2024-01-24T06:48:57.605Z,12.50
2024-01-24T06:50:59.608Z,12.50
2024-01-24T06:53:01.417Z,12.50
2024-01-24T06:55:03.539Z,12.50
2024-01-24T06:57:05.525Z,12.50
2024-01-24T06:59:07.343Z,12.50
2024-01-24T07:01:09.327Z,12.50
2024-01-24T07:03:11.309Z,12.50
2024-01-24T07:05:13.105Z,12.50
2024-01-24T07:07:15.910Z,12.50
2024-01-24T07:09:18.367Z,12.50
2024-01-24T07:11:20.230Z,12.40
2024-01-24T07:13:22.017Z,12.40
2024-01-24T07:15:26.359Z,12.40
2024-01-24T07:17:28.171Z,12.40
2024-01-24T07:19:30.297Z,12.30
2024-01-24T07:21:32.455Z,12.40
2024-01-24T07:23:34.613Z,12.30
2024-01-24T07:25:36.345Z,12.30
2024-01-24T07:27:38.120Z,12.30
2024-01-24T07:29:39.984Z,12.40
2024-01-24T07:31:41.895Z,12.30
2024-01-24T07:33:43.998Z,12.30
2024-01-24T07:35:45.806Z,12.30
2024-01-24T07:37:48.862Z,12.30
2024-01-24T07:39:50.708Z,12.30
2024-01-24T07:41:53.321Z,12.30
2024-01-24T07:43:55.145Z,12.30
2024-01-24T07:45:57.488Z,12.30
2024-01-24T07:47:59.851Z,12.30
2024-01-24T07:50:01.937Z,12.30
2024-01-24T07:52:04.173Z,12.30
2024-01-24T07:54:06.256Z,12.30
2024-01-24T07:56:15.855Z,12.30
2024-01-24T07:58:26.210Z,12.40
2024-01-24T08:00:28.862Z,12.50
2024-01-24T08:02:30.731Z,12.50
2024-01-24T08:04:33.308Z,12.50
2024-01-24T08:06:35.342Z,12.50
2024-01-24T08:08:37.171Z,12.50
2024-01-24T08:10:38.949Z,12.50
2024-01-24T08:12:41.253Z,12.50
2024-01-24T08:14:43.468Z,12.50
2024-01-24T08:17:05.173Z,12.50
2024-01-24T08:19:07.155Z,12.50
2024-01-24T08:21:09.110Z,12.50
2024-01-24T08:23:10.917Z,12.50
2024-01-24T08:25:12.747Z,12.50
2024-01-24T08:27:14.693Z,12.50
2024-01-24T08:29:22.434Z,12.50
2024-01-24T08:31:31.321Z,12.50
2024-01-24T08:33:34.013Z,12.50
2024-01-24T08:35:37.341Z,12.50
2024-01-24T08:37:39.129Z,12.60
2024-01-24T08:39:41.578Z,12.50
2024-01-24T08:41:43.394Z,12.50
2024-01-24T08:43:45.174Z,12.50
2024-01-24T08:45:50.455Z,12.50
2024-01-24T08:47:53.257Z,12.50
2024-01-24T08:49:57.767Z,12.50
2024-01-24T08:52:00.399Z,12.50
2024-01-24T08:54:02.410Z,12.50
2024-01-24T08:56:04.763Z,12.50
2024-01-24T08:58:06.733Z,12.50
2024-01-24T09:00:09.754Z,12.50
2024-01-24T09:02:11.654Z,12.50
2024-01-24T09:04:13.666Z,12.50
2024-01-24T09:06:16.767Z,12.50
2024-01-24T09:08:18.617Z,12.50
2024-01-24T09:10:20.743Z,12.50
2024-01-24T09:12:23.098Z,12.50
2024-01-24T09:14:26.068Z,12.50
2024-01-24T09:16:27.839Z,12.50
2024-01-24T09:18:30.047Z,12.50
2024-01-24T09:20:31.963Z,12.50
2024-01-24T09:22:33.826Z,12.40
2024-01-24T09:24:35.677Z,12.30
2024-01-24T09:26:37.813Z,12.20
2024-01-24T09:28:39.735Z,12.20
2024-01-24T09:30:41.611Z,12.20
2024-01-24T09:32:43.692Z,12.30
2024-01-24T09:34:45.759Z,12.20
2024-01-24T09:36:48.313Z,12.20
2024-01-24T09:38:50.585Z,12.20
2024-01-24T09:40:54.591Z,12.20
2024-01-24T09:43:00.452Z,12.20
2024-01-24T09:45:04.567Z,12.20
2024-01-24T09:47:09.455Z,12.30
2024-01-24T09:49:12.217Z,12.30
2024-01-24T09:51:14.938Z,12.30
2024-01-24T09:53:21.357Z,12.40
2024-01-24T09:55:24.934Z,12.50
2024-01-24T09:57:28.172Z,12.50
2024-01-24T09:59:30.126Z,12.50
2024-01-24T10:01:35.629Z,12.60
2024-01-24T10:03:38.140Z,12.70
2024-01-24T10:05:41.766Z,12.70
2024-01-24T10:07:43.718Z,12.70
2024-01-24T10:09:45.694Z,12.80
2024-01-24T10:11:47.617Z,12.80
2024-01-24T10:13:49.373Z,12.80
2024-01-24T10:15:51.335Z,12.80
2024-01-24T10:17:53.835Z,12.80
2024-01-24T10:19:55.877Z,12.80
2024-01-24T10:21:57.764Z,12.90
2024-01-24T10:24:00.456Z,12.90
2024-01-24T10:26:02.982Z,12.90
2024-01-24T10:28:13.824Z,13.00
2024-01-24T10:30:17.101Z,13.10
2024-01-24T10:32:19.225Z,13.10
2024-01-24T10:34:21.283Z,13.10
2024-01-24T10:36:27.745Z,13.20
2024-01-24T10:38:34.429Z,13.20
2024-01-24T10:40:36.531Z,13.30
2024-01-24T10:42:41.729Z,13.30
2024-01-24T10:44:45.809Z,13.30
2024-01-24T10:46:49.938Z,13.30
2024-01-24T10:48:52.571Z,13.30
2024-01-24T10:50:55.684Z,13.50
2024-01-24T10:52:58.479Z,13.40
2024-01-24T10:55:07.112Z,13.50
2024-01-24T10:57:10.505Z,13.50
2024-01-24T10:59:14.778Z,13.50
2024-01-24T11:01:17.079Z,13.50
2024-01-24T11:03:19.360Z,13.60
2024-01-24T11:05:23.468Z,13.50
2024-01-24T11:07:36.916Z,13.60
2024-01-24T11:09:54.756Z,13.60
2024-01-24T11:11:59.537Z,13.60
2024-01-24T11:14:02.824Z,13.60
2024-01-24T11:16:38.186Z,13.60
2024-01-24T11:18:40.119Z,13.70
2024-01-24T11:20:50.073Z,13.70
2024-01-24T11:22:51.939Z,13.70
2024-01-24T11:24:54.446Z,13.80
2024-01-24T11:26:58.251Z,13.80
2024-01-24T11:29:15.823Z,13.80
2024-01-24T11:31:41.884Z,13.90
2024-01-24T11:34:05.622Z,13.80
2024-01-24T11:36:14.082Z,13.80
2024-01-24T11:38:26.650Z,13.80
2024-01-24T11:40:35.817Z,13.90
2024-01-24T11:42:38.073Z,13.80
2024-01-24T11:44:40.337Z,13.80
2024-01-24T11:46:42.653Z,13.80
2024-01-24T11:48:44.656Z,13.70
2024-01-24T11:50:47.416Z,13.80
2024-01-24T11:52:49.231Z,13.80
2024-01-24T11:54:55.123Z,13.80
2024-01-24T11:56:59.449Z,13.90
2024-01-24T11:59:01.273Z,13.90
2024-01-24T12:01:05.470Z,13.90
2024-01-24T12:03:09.243Z,13.90
2024-01-24T12:05:11.474Z,13.90
2024-01-24T12:07:13.362Z,13.90
2024-01-24T12:09:15.741Z,13.90
2024-01-24T12:11:17.578Z,13.90
2024-01-24T12:13:22.032Z,13.80
2024-01-24T12:15:23.965Z,13.80
2024-01-24T12:17:26.372Z,13.80
2024-01-24T12:19:30.512Z,13.90
2024-01-24T12:21:34.733Z,13.90
2024-01-24T12:23:36.686Z,13.90
2024-01-24T12:25:38.714Z,13.90
2024-01-24T12:27:40.833Z,13.90
2024-01-24T12:29:43.197Z,13.90
2024-01-24T12:31:47.030Z,13.90
2024-01-24T12:33:49.414Z,13.90
2024-01-24T12:35:52.105Z,13.90
2024-01-24T12:37:57.715Z,13.90
2024-01-24T12:40:06.408Z,13.90
2024-01-24T12:42:08.700Z,13.90
2024-01-24T12:44:10.938Z,13.90
2024-01-24T12:46:13.342Z,13.90
2024-01-24T12:48:15.536Z,13.90
2024-01-24T12:50:18.184Z,13.90
2024-01-24T12:52:20.350Z,13.90
2024-01-24T12:54:22.772Z,13.90
2024-01-24T12:56:24.758Z,13.90
2024-01-24T12:58:26.751Z,13.90
2024-01-24T13:00:28.523Z,13.90
2024-01-24T13:02:30.328Z,13.80
2024-01-24T13:04:32.653Z,13.70
2024-01-24T13:06:37.026Z,13.70
2024-01-24T13:08:39.125Z,13.60
2024-01-24T13:10:45.195Z,13.60
2024-01-24T13:12:47.597Z,13.60
2024-01-24T13:14:49.904Z,13.60
2024-01-24T13:16:52.274Z,13.50
2024-01-24T13:18:54.442Z,13.60
2024-01-24T13:20:56.410Z,13.50
2024-01-24T13:22:58.293Z,13.50
2024-01-24T13:25:00.201Z,13.60
2024-01-24T13:27:02.213Z,13.60
2024-01-24T13:29:04.091Z,13.60
2024-01-24T13:31:05.847Z,13.60
2024-01-24T13:33:07.844Z,13.60
2024-01-24T13:35:09.838Z,13.70
2024-01-24T13:37:12.837Z,13.60
2024-01-24T13:39:15.659Z,13.60
2024-01-24T13:41:17.765Z,13.60
2024-01-24T13:43:19.575Z,13.50
2024-01-24T13:45:21.384Z,13.50
2024-01-24T13:47:24.822Z,13.50
2024-01-24T13:49:27.014Z,13.50
2024-01-24T13:51:38.738Z,13.50
2024-01-24T13:53:44.801Z,13.50
2024-01-24T13:55:46.588Z,13.50
2024-01-24T13:57:49.666Z,13.50
2024-01-24T13:59:51.966Z,13.50
2024-01-24T14:01:59.926Z,13.50
2024-01-24T14:04:02.892Z,13.50
2024-01-24T14:06:05.147Z,13.50
2024-01-24T14:08:07.272Z,13.50
2024-01-24T14:10:10.320Z,13.60
2024-01-24T14:12:12.411Z,13.60
2024-01-24T14:14:14.487Z,13.70
2024-01-24T14:16:19.787Z,13.70
2024-01-24T14:18:21.736Z,13.70
2024-01-24T14:20:23.741Z,13.60
2024-01-24T14:22:26.276Z,13.50
2024-01-24T14:24:28.221Z,13.50
2024-01-24T14:26:31.512Z,13.50
2024-01-24T14:28:33.794Z,13.50
2024-01-24T14:30:35.762Z,13.50
2024-01-24T14:32:40.407Z,13.50
2024-01-24T14:34:42.320Z,13.50
2024-01-24T14:36:49.760Z,13.50
2024-01-24T14:38:59.638Z,13.40
2024-01-24T14:41:01.439Z,13.30
2024-01-24T14:43:05.324Z,13.30
2024-01-24T14:45:09.117Z,13.30
2024-01-24T14:47:10.849Z,13.30
2024-01-24T14:49:12.798Z,13.30
2024-01-24T14:51:14.700Z,13.30
2024-01-24T14:53:17.552Z,13.20
2024-01-24T14:55:19.344Z,13.20
2024-01-24T14:57:21.270Z,13.20
2024-01-24T14:59:23.119Z,13.10
2024-01-24T15:01:25.569Z,13.10
2024-01-24T15:03:27.525Z,13.00
2024-01-24T15:05:29.314Z,13.00
2024-01-24T15:07:32.592Z,12.90
2024-01-24T15:09:35.158Z,12.90
2024-01-24T15:11:37.322Z,12.90
2024-01-24T15:13:40.195Z,12.80
2024-01-24T15:15:42.056Z,12.80
2024-01-24T15:17:43.986Z,12.90
2024-01-24T15:19:50.312Z,12.90
2024-01-24T15:21:52.814Z,12.90
2024-01-24T15:23:55.674Z,13.00
2024-01-24T15:25:57.853Z,13.00
2024-01-24T15:28:00.579Z,13.00
2024-01-24T15:30:02.487Z,13.00
2024-01-24T15:32:05.194Z,13.00
2024-01-24T15:34:07.726Z,13.00
2024-01-24T15:36:10.883Z,13.10
2024-01-24T15:38:13.990Z,13.10
2024-01-24T15:40:18.225Z,13.10
2024-01-24T15:42:22.606Z,13.10
2024-01-24T15:44:24.463Z,13.10
2024-01-24T15:46:26.459Z,13.10
2024-01-24T15:48:28.399Z,13.10
2024-01-24T15:50:30.271Z,13.10
2024-01-24T15:52:32.122Z,13.00
2024-01-24T15:54:34.046Z,12.90
2024-01-24T15:56:35.867Z,12.90
2024-01-24T15:58:39.599Z,12.80
2024-01-24T16:00:42.146Z,12.80
2024-01-24T16:02:44.422Z,12.80
2024-01-24T16:04:46.760Z,12.80
2024-01-24T16:06:48.800Z,12.70
2024-01-24T16:08:51.864Z,12.60
2024-01-24T16:10:54.330Z,12.50
2024-01-24T16:12:56.234Z,12.10
2024-01-24T16:14:58.797Z,11.90
2024-01-24T16:17:00.547Z,11.80
2024-01-24T16:19:02.499Z,11.70
2024-01-24T16:21:07.540Z,11.50
2024-01-24T16:23:09.386Z,11.40
2024-01-24T16:25:11.342Z,11.30
2024-01-24T16:27:14.955Z,11.10
2024-01-24T16:29:16.749Z,11.00
2024-01-24T16:31:18.489Z,10.90
2024-01-24T16:33:20.324Z,10.80
2024-01-24T16:35:22.666Z,10.70
2024-01-24T16:37:25.081Z,10.60
2024-01-24T16:39:26.888Z,10.40
2024-01-24T16:41:28.693Z,10.10
2024-01-24T16:43:32.993Z,9.90
2024-01-24T16:45:34.821Z,9.70
2024-01-24T16:47:36.804Z,9.60
2024-01-24T16:49:38.711Z,9.50
2024-01-24T16:51:40.672Z,9.50
2024-01-24T16:53:42.648Z,9.50
2024-01-24T16:55:44.466Z,9.50
2024-01-24T16:57:46.457Z,9.50
2024-01-24T16:59:50.148Z,9.60
2024-01-24T17:01:52.109Z,9.50
2024-01-24T17:03:54.039Z,9.60
2024-01-24T17:05:55.988Z,9.50
2024-01-24T17:07:58.419Z,9.50
2024-01-24T17:10:01.430Z,9.50
2024-01-24T17:12:03.413Z,9.40
2024-01-24T17:14:05.331Z,9.40
2024-01-24T17:16:07.361Z,9.40
2024-01-24T17:18:09.205Z,9.40
2024-01-24T17:20:11.252Z,9.40
2024-01-24T17:22:13.469Z,9.40
2024-01-24T17:24:15.274Z,9.40
2024-01-24T17:26:17.208Z,9.40
2024-01-24T17:28:19.683Z,9.40
2024-01-24T17:30:21.709Z,9.40
2024-01-24T17:32:23.595Z,9.40
2024-01-24T17:34:25.444Z,9.30
2024-01-24T17:36:27.426Z,9.30
2024-01-24T17:38:29.309Z,9.30
2024-01-24T17:40:31.643Z,9.30
2024-01-24T17:42:34.155Z,9.30
2024-01-24T17:44:36.054Z,9.20
2024-01-24T17:46:39.816Z,9.20
2024-01-24T17:48:41.947Z,9.20
2024-01-24T17:50:44.130Z,9.20
2024-01-24T17:52:46.102Z,9.20
2024-01-24T17:54:47.980Z,9.20
2024-01-24T17:56:49.970Z,9.20
2024-01-24T17:58:51.979Z,9.20
2024-01-24T18:00:53.839Z,9.30
2024-01-24T18:02:55.707Z,9.40
2024-01-24T18:04:57.962Z,9.30
2024-01-24T18:06:59.958Z,9.20
2024-01-24T18:09:01.902Z,9.30
2024-01-24T18:11:03.775Z,9.30
2024-01-24T18:13:05.638Z,9.40
2024-01-24T18:15:08.428Z,9.40
2024-01-24T18:17:10.146Z,9.30
2024-01-24T18:19:12.201Z,9.20
2024-01-24T18:21:14.071Z,9.20
2024-01-24T18:23:15.804Z,9.20
2024-01-24T18:25:17.641Z,9.20
2024-01-24T18:27:19.400Z,9.20
2024-01-24T18:29:21.241Z,9.20
2024-01-24T18:31:23.369Z,9.20
2024-01-24T18:33:25.355Z,9.20
2024-01-24T18:35:27.671Z,9.20
2024-01-24T18:37:29.743Z,9.20
2024-01-24T18:39:32.585Z,9.20
2024-01-24T18:41:34.346Z,9.10
2024-01-24T18:43:36.177Z,9.10
2024-01-24T18:45:38.543Z,9.10
2024-01-24T18:47:40.731Z,9.10
2024-01-24T18:49:43.796Z,9.00
2024-01-24T18:51:46.710Z,9.00
2024-01-24T18:53:48.680Z,9.00
2024-01-24T18:55:52.804Z,9.00
2024-01-24T18:57:55.379Z,9.00
2024-01-24T18:59:57.504Z,9.00
2024-01-24T19:01:59.543Z,9.00
2024-01-24T19:04:01.666Z,9.00
2024-01-24T19:06:04.079Z,9.00
2024-01-24T19:08:08.787Z,9.00
2024-01-24T19:10:10.943Z,9.00
2024-01-24T19:12:12.812Z,9.00
2024-01-24T19:14:14.865Z,8.90
2024-01-24T19:16:16.850Z,9.00
2024-01-24T19:18:22.740Z,9.00
2024-01-24T19:20:26.748Z,9.00
2024-01-24T19:22:28.670Z,9.00
2024-01-24T19:24:30.621Z,9.00
2024-01-24T19:26:35.764Z,8.90
2024-01-24T19:28:37.574Z,8.90
2024-01-24T19:30:39.347Z,8.90
2024-01-24T19:32:41.087Z,8.90
2024-01-24T19:34:57.030Z,8.90
2024-01-24T19:36:58.846Z,8.90
2024-01-24T19:39:00.690Z,8.90
2024-01-24T19:41:02.461Z,8.90
2024-01-24T19:43:04.540Z,8.80
2024-01-24T19:45:07.309Z,8.90
2024-01-24T19:47:08.960Z,8.90
2024-01-24T19:49:11.316Z,8.90
2024-01-24T19:51:13.351Z,8.80
2024-01-24T19:53:20.599Z,8.90
2024-01-24T19:55:25.829Z,8.90
2024-01-24T19:57:27.602Z,8.90
2024-01-24T19:59:29.440Z,8.90
2024-01-24T20:01:31.352Z,8.90
2024-01-24T20:03:33.466Z,8.90
2024-01-24T20:05:37.135Z,8.80
2024-01-24T20:07:39.431Z,8.80
2024-01-24T20:09:41.712Z,8.80
2024-01-24T20:11:43.648Z,8.80
2024-01-24T20:13:45.524Z,8.80
2024-01-24T20:15:47.759Z,8.80
2024-01-24T20:17:49.650Z,8.80
2024-01-24T20:19:52.379Z,8.80
2024-01-24T20:21:54.249Z,8.80
2024-01-24T20:23:56.113Z,8.80
2024-01-24T20:25:57.884Z,8.70
2024-01-24T20:27:59.729Z,8.70
2024-01-24T20:30:01.864Z,8.80
2024-01-24T20:32:04.565Z,8.70
2024-01-24T20:34:06.487Z,8.70
2024-01-24T20:36:12.485Z,8.60
2024-01-24T20:38:14.693Z,8.60
2024-01-24T20:40:16.681Z,8.60
2024-01-24T20:42:25.155Z,8.60
2024-01-24T20:44:30.913Z,8.60
2024-01-24T20:46:33.499Z,8.60
2024-01-24T20:48:35.913Z,8.60
2024-01-24T20:50:37.760Z,8.60
2024-01-24T20:52:39.656Z,8.60
2024-01-24T20:54:41.472Z,8.60
2024-01-24T20:56:45.038Z,8.60
2024-01-24T20:58:46.920Z,8.60
2024-01-24T21:00:48.956Z,8.60
2024-01-24T21:02:52.862Z,8.60
2024-01-24T21:04:54.988Z,8.60
2024-01-24T21:06:57.110Z,8.60
2024-01-24T21:08:58.966Z,8.60
2024-01-24T21:11:03.772Z,8.60
2024-01-24T21:13:06.379Z,8.50
2024-01-24T21:15:08.638Z,8.50
2024-01-24T21:17:10.442Z,8.50
2024-01-24T21:19:17.355Z,8.50
2024-01-24T21:21:19.452Z,8.50
2024-01-24T21:23:21.245Z,8.50
2024-01-24T21:25:23.694Z,8.50
2024-01-24T21:27:25.503Z,8.50
2024-01-24T21:29:27.271Z,8.50
2024-01-24T21:31:29.076Z,8.40
2024-01-24T21:33:32.800Z,8.50
2024-01-24T21:35:34.862Z,8.40
2024-01-24T21:37:36.823Z,8.40
2024-01-24T21:39:38.666Z,8.40
2024-01-24T21:41:40.433Z,8.40
2024-01-24T21:43:42.177Z,8.40
2024-01-24T21:45:44.020Z,8.30
2024-01-24T21:47:46.142Z,8.30
2024-01-24T21:49:48.144Z,8.30
2024-01-24T21:51:50.010Z,8.30
2024-01-24T21:53:51.828Z,8.30
2024-01-24T21:55:53.921Z,8.40
2024-01-24T21:57:55.688Z,8.30
2024-01-24T21:59:57.538Z,8.30
2024-01-24T22:01:59.554Z,8.30
2024-01-24T22:04:03.295Z,8.30
2024-01-24T22:06:05.727Z,8.30
2024-01-24T22:08:08.049Z,8.30
2024-01-24T22:10:10.107Z,8.30
2024-01-24T22:12:13.779Z,8.20
2024-01-24T22:14:15.555Z,8.20
2024-01-24T22:16:17.409Z,8.20
2024-01-24T22:18:22.722Z,8.20
2024-01-24T22:20:27.090Z,8.20
2024-01-24T22:22:29.287Z,8.20
2024-01-24T22:24:31.120Z,8.20
2024-01-24T22:26:33.099Z,8.20
2024-01-24T22:28:34.922Z,8.10
2024-01-24T22:30:36.828Z,8.20
2024-01-24T22:32:39.113Z,8.20
2024-01-24T22:34:41.002Z,8.20
2024-01-24T22:36:42.926Z,8.20
2024-01-24T22:38:49.135Z,8.20
2024-01-24T22:40:51.224Z,8.10
2024-01-24T22:42:53.026Z,8.10
2024-01-24T22:44:54.837Z,8.10
2024-01-24T22:46:56.620Z,8.10
2024-01-24T22:48:58.769Z,8.10
2024-01-24T22:51:00.641Z,8.10
2024-01-24T22:53:02.669Z,8.10
2024-01-24T22:55:04.892Z,8.10
2024-01-24T22:57:06.676Z,8.00
2024-01-24T22:59:08.605Z,8.00
2024-01-24T23:01:10.589Z,8.00
2024-01-24T23:03:12.409Z,8.10
2024-01-24T23:05:14.860Z,8.00
2024-01-24T23:07:16.911Z,8.00
2024-01-24T23:09:19.870Z,8.00
2024-01-24T23:11:21.601Z,8.00
2024-01-24T23:13:23.374Z,8.00
2024-01-24T23:15:25.235Z,8.00
2024-01-24T23:17:27.143Z,8.00
2024-01-24T23:19:29.062Z,8.00
2024-01-24T23:21:30.843Z,8.00
2024-01-24T23:23:32.572Z,7.90
2024-01-24T23:25:34.393Z,8.00
2024-01-24T23:27:36.219Z,8.00
2024-01-24T23:29:38.443Z,7.90
2024-01-24T23:31:40.258Z,7.90
2024-01-24T23:33:42.130Z,7.90
2024-01-24T23:35:44.092Z,7.90
2024-01-24T23:37:46.536Z,7.90
2024-01-24T23:39:48.371Z,7.80
2024-01-24T23:41:50.117Z,7.80
2024-01-24T23:43:52.526Z,7.80
2024-01-24T23:45:54.287Z,7.80
2024-01-24T23:47:56.220Z,7.80
2024-01-24T23:49:58.633Z,7.80
2024-01-24T23:52:00.917Z,7.70
2024-01-24T23:54:02.803Z,7.80
2024-01-24T23:56:04.894Z,7.80
2024-01-24T23:58:06.839Z,7.80
